createdAt,value
2023-05-15T00:00:47.616Z,20.23
2023-05-15T00:03:19.652Z,20.77
2023-05-15T00:05:52.476Z,21.23
2023-05-15T00:08:24.466Z,21.07
2023-05-15T00:13:31.291Z,22.60
2023-05-15T00:16:03.622Z,21.57
2023-05-15T00:18:35.806Z,20.77
2023-05-15T00:21:07.818Z,20.20
2023-05-15T00:23:39.743Z,20.50
2023-05-15T00:26:13.760Z,20.73
2023-05-15T00:28:45.843Z,21.47
2023-05-15T00:31:18.137Z,21.53
2023-05-15T00:33:50.122Z,21.77
2023-05-15T00:36:24.255Z,21.33
2023-05-15T00:38:56.542Z,21.80
2023-05-15T00:41:32.626Z,21.70
2023-05-15T00:44:06.827Z,22.67
2023-05-15T00:46:40.119Z,22.20
2023-05-15T00:49:14.246Z,21.73
2023-05-15T00:51:46.166Z,22.53
2023-05-15T00:54:18.172Z,21.80
2023-05-15T00:56:51.757Z,23.13
2023-05-15T00:59:26.842Z,24.13
2023-05-15T01:01:58.966Z,23.97
2023-05-15T01:04:31.181Z,23.03
2023-05-15T01:07:03.379Z,23.93
2023-05-15T01:09:38.261Z,23.70
2023-05-15T01:12:14.430Z,23.20
2023-05-15T01:14:46.464Z,23.57
2023-05-15T01:17:18.429Z,23.70
2023-05-15T01:19:52.605Z,23.93
2023-05-15T01:23:20.719Z,23.80
2023-05-15T01:26:04.330Z,25.17
2023-05-15T01:29:08.596Z,24.57
2023-05-15T01:31:47.331Z,25.03
2023-05-15T01:34:27.369Z,26.17
2023-05-15T01:37:03.518Z,25.37
2023-05-15T01:39:40.986Z,25.60
2023-05-15T01:42:18.933Z,24.43
2023-05-15T01:44:55.822Z,25.23
2023-05-15T01:47:41.952Z,24.83
2023-05-15T01:50:17.498Z,26.13
2023-05-15T01:52:57.476Z,25.93
2023-05-15T01:55:30.751Z,25.63
2023-05-15T01:58:05.393Z,25.70
2023-05-15T02:00:39.284Z,25.60
2023-05-15T02:03:11.811Z,26.20
2023-05-15T02:05:44.945Z,26.50
2023-05-15T02:08:17.489Z,26.77
2023-05-15T02:10:51.019Z,26.70
2023-05-15T02:13:25.238Z,26.37
2023-05-15T02:15:57.317Z,27.90
2023-05-15T02:18:29.528Z,26.50
2023-05-15T02:21:03.026Z,26.93
2023-05-15T02:23:35.090Z,27.17
2023-05-15T02:26:12.887Z,26.27
2023-05-15T02:29:12.420Z,26.80
2023-05-15T02:32:10.608Z,25.63
2023-05-15T02:34:55.611Z,26.63
2023-05-15T02:37:32.216Z,26.60
2023-05-15T02:40:10.111Z,27.03
2023-05-15T02:42:45.863Z,27.57
2023-05-15T02:45:19.252Z,26.63
2023-05-15T02:47:52.941Z,27.53
2023-05-15T02:50:26.002Z,27.17
2023-05-15T02:53:08.276Z,28.87
2023-05-15T02:55:40.312Z,28.23
2023-05-15T02:58:12.569Z,29.70
2023-05-15T03:00:44.548Z,31.00
2023-05-15T03:03:16.700Z,31.63
2023-05-15T03:05:48.620Z,33.07
2023-05-15T03:08:20.509Z,32.43
2023-05-15T03:10:52.553Z,31.80
2023-05-15T03:13:24.621Z,34.73
2023-05-15T03:15:56.510Z,33.20
2023-05-15T03:18:28.517Z,33.43
2023-05-15T03:21:00.585Z,33.23
2023-05-15T03:23:32.540Z,33.83
2023-05-15T03:26:23.221Z,34.23
2023-05-15T03:28:55.792Z,33.90
2023-05-15T03:31:27.792Z,34.03
2023-05-15T03:33:59.734Z,34.20
2023-05-15T03:36:31.716Z,34.30
2023-05-15T03:39:04.832Z,33.33
2023-05-15T03:41:36.759Z,40.33
2023-05-15T03:44:08.702Z,35.97
2023-05-15T03:46:40.781Z,35.57
2023-05-15T03:49:12.772Z,36.17
2023-05-15T03:51:44.831Z,36.60
2023-05-15T03:54:16.919Z,36.93
2023-05-15T03:56:49.018Z,34.43
2023-05-15T03:59:20.939Z,35.97
2023-05-15T04:02:03.371Z,36.70
2023-05-15T04:04:37.535Z,36.20
2023-05-15T04:07:09.495Z,35.37
2023-05-15T04:09:41.496Z,35.73
2023-05-15T04:12:13.462Z,34.63
2023-05-15T04:14:45.411Z,35.30
2023-05-15T04:17:17.378Z,36.87
2023-05-15T04:19:49.277Z,36.30
2023-05-15T04:22:21.282Z,36.33
2023-05-15T04:24:53.193Z,36.90
2023-05-15T04:27:26.000Z,37.03
2023-05-15T04:29:57.928Z,37.80
2023-05-15T04:32:31.196Z,39.17
2023-05-15T04:35:10.696Z,39.37
2023-05-15T04:37:45.824Z,39.43
2023-05-15T04:40:18.681Z,37.90
2023-05-15T04:42:50.592Z,39.87
2023-05-15T04:45:24.596Z,41.20
2023-05-15T04:47:56.982Z,39.70
2023-05-15T04:50:29.078Z,39.60
2023-05-15T04:53:00.999Z,39.77
2023-05-15T04:55:33.765Z,41.57
2023-05-15T04:58:05.968Z,42.90
2023-05-15T05:00:39.229Z,42.70
2023-05-15T05:03:11.643Z,41.00
2023-05-15T05:05:43.620Z,40.63
2023-05-15T05:08:15.682Z,42.90
2023-05-15T05:10:47.597Z,41.83
2023-05-15T05:13:19.492Z,39.77
2023-05-15T05:15:51.517Z,41.73
2023-05-15T05:18:23.502Z,43.03
2023-05-15T05:21:02.663Z,38.17
2023-05-15T05:23:34.705Z,35.97
2023-05-15T05:26:06.743Z,38.37
2023-05-15T05:28:38.674Z,36.47
2023-05-15T05:31:10.966Z,36.93
2023-05-15T05:33:42.942Z,36.87
2023-05-15T05:36:15.025Z,36.97
2023-05-15T05:38:46.995Z,36.33
2023-05-15T05:41:19.057Z,36.23
2023-05-15T05:43:50.990Z,36.33
2023-05-15T05:46:22.957Z,37.40
2023-05-15T05:48:54.954Z,36.47
2023-05-15T05:51:26.901Z,37.13
2023-05-15T05:53:58.816Z,34.70
2023-05-15T05:56:31.040Z,36.63
2023-05-15T05:59:03.204Z,33.97
2023-05-15T06:01:35.213Z,35.87
2023-05-15T06:04:07.297Z,39.00
2023-05-15T06:06:39.323Z,34.50
2023-05-15T06:09:11.237Z,33.27
2023-05-15T06:11:43.242Z,31.97
2023-05-15T06:14:15.356Z,34.07
2023-05-15T06:16:47.386Z,37.53
2023-05-15T06:19:19.457Z,31.37
2023-05-15T06:21:51.512Z,32.10
2023-05-15T06:24:23.455Z,31.43
2023-05-15T06:26:55.509Z,30.53
2023-05-15T06:29:27.579Z,30.80
2023-05-15T06:31:59.490Z,30.10
2023-05-15T06:34:31.471Z,27.80
2023-05-15T06:37:03.603Z,27.53
2023-05-15T06:39:35.750Z,27.07
2023-05-15T06:42:08.117Z,25.97
2023-05-15T06:44:40.118Z,28.30
2023-05-15T06:47:12.302Z,29.70
2023-05-15T06:49:44.441Z,28.03
2023-05-15T06:52:16.495Z,27.50
2023-05-15T06:54:48.565Z,29.33
2023-05-15T06:57:20.462Z,27.97
2023-05-15T06:59:52.441Z,28.70
2023-05-15T07:02:24.420Z,27.77
2023-05-15T07:04:56.638Z,25.80
2023-05-15T07:07:28.669Z,27.23
2023-05-15T07:10:00.646Z,25.37
2023-05-15T07:12:33.176Z,27.20
2023-05-15T07:15:06.110Z,24.90
2023-05-15T07:17:38.290Z,25.40
2023-05-15T07:20:10.768Z,25.97
2023-05-15T07:22:54.943Z,26.40
2023-05-15T07:25:28.732Z,25.80
2023-05-15T07:28:00.882Z,27.57
2023-05-15T07:30:32.856Z,26.43
2023-05-15T07:33:04.957Z,27.63
2023-05-15T07:35:37.087Z,27.13
2023-05-15T07:38:09.203Z,26.67
2023-05-15T07:40:41.214Z,24.73
2023-05-15T07:43:13.197Z,26.87
2023-05-15T07:45:46.017Z,27.30
2023-05-15T07:48:20.325Z,28.60
2023-05-15T07:50:53.753Z,27.07
2023-05-15T07:53:25.764Z,25.87
2023-05-15T07:55:57.686Z,27.30
2023-05-15T07:58:29.672Z,29.27
2023-05-15T08:01:01.600Z,29.20
2023-05-15T08:03:34.029Z,27.63
2023-05-15T08:06:08.267Z,30.30
2023-05-15T08:08:40.558Z,31.47
2023-05-15T08:11:12.605Z,32.53
2023-05-15T08:13:44.577Z,33.43
2023-05-15T08:16:16.568Z,32.00
2023-05-15T08:18:48.554Z,36.33
2023-05-15T08:21:20.550Z,37.97
2023-05-15T08:23:54.762Z,37.40
2023-05-15T08:26:27.088Z,36.70
2023-05-15T08:28:59.052Z,37.47
2023-05-15T08:31:31.084Z,39.37
2023-05-15T08:34:03.018Z,37.73
2023-05-15T08:36:35.905Z,39.47
2023-05-15T08:39:09.501Z,37.50
2023-05-15T08:41:53.021Z,38.17
2023-05-15T08:44:25.206Z,36.83
2023-05-15T08:46:59.896Z,37.50
2023-05-15T08:49:56.917Z,37.30
2023-05-15T08:52:29.369Z,35.03
2023-05-15T08:55:03.923Z,34.00
2023-05-15T08:57:37.125Z,34.97
2023-05-15T09:00:11.845Z,33.63
2023-05-15T09:02:43.898Z,34.27
2023-05-15T09:05:15.999Z,29.67
2023-05-15T09:07:51.520Z,29.93
2023-05-15T09:10:23.864Z,32.63
2023-05-15T09:12:57.929Z,31.90
2023-05-15T09:15:30.805Z,32.67
2023-05-15T09:18:02.843Z,31.33
2023-05-15T09:20:38.918Z,29.80
2023-05-15T09:23:27.357Z,28.13
2023-05-15T09:25:59.263Z,29.20
2023-05-15T09:28:35.073Z,28.17
2023-05-15T09:31:09.038Z,27.13
2023-05-15T09:33:42.518Z,25.93
2023-05-15T09:36:22.936Z,28.33
2023-05-15T09:39:01.058Z,29.50
2023-05-15T09:41:33.118Z,27.27
2023-05-15T09:44:05.352Z,26.37
2023-05-15T09:46:37.444Z,27.93
2023-05-15T09:49:09.812Z,27.80
2023-05-15T09:51:44.566Z,27.13
2023-05-15T09:54:18.766Z,28.10
2023-05-15T09:56:50.718Z,28.13
2023-05-15T09:59:22.714Z,29.00
2023-05-15T10:01:54.827Z,27.73
2023-05-15T10:04:27.000Z,28.27
2023-05-15T10:06:59.440Z,28.60
2023-05-15T10:09:32.473Z,29.27
2023-05-15T10:12:05.897Z,27.83
2023-05-15T10:14:38.212Z,29.87
2023-05-15T10:17:10.904Z,29.33
2023-05-15T10:19:56.770Z,30.23
2023-05-15T10:22:36.107Z,28.43
2023-05-15T10:25:33.011Z,29.83
2023-05-15T10:28:10.754Z,28.90
2023-05-15T10:30:43.861Z,28.27
2023-05-15T10:33:16.150Z,28.83
2023-05-15T10:35:49.749Z,29.00
2023-05-15T10:38:22.980Z,27.90
2023-05-15T10:41:13.094Z,27.10
2023-05-15T10:43:49.939Z,27.73
2023-05-15T10:46:22.518Z,27.20
2023-05-15T10:48:54.961Z,26.13
2023-05-15T10:51:36.916Z,26.30
2023-05-15T10:54:09.683Z,24.93
2023-05-15T10:56:42.835Z,24.30
2023-05-15T10:59:14.873Z,24.50
2023-05-15T11:01:48.215Z,23.90
2023-05-15T11:04:26.400Z,25.00
2023-05-15T11:07:14.621Z,23.53
2023-05-15T11:09:46.701Z,24.50
2023-05-15T11:12:19.436Z,24.60
2023-05-15T11:14:57.108Z,25.50
2023-05-15T11:17:33.451Z,24.97
2023-05-15T11:20:06.137Z,25.57
2023-05-15T11:22:38.856Z,24.63
2023-05-15T11:25:12.619Z,26.20
2023-05-15T11:27:46.495Z,25.57
2023-05-15T11:30:23.416Z,27.00
2023-05-15T11:33:04.803Z,26.03
2023-05-15T11:35:48.186Z,27.03
2023-05-15T11:38:27.068Z,27.40
2023-05-15T11:41:03.933Z,28.90
2023-05-15T11:43:36.654Z,28.53
2023-05-15T11:46:10.899Z,29.83
2023-05-15T11:48:45.493Z,30.47
2023-05-15T11:51:36.265Z,30.90
2023-05-15T11:54:10.255Z,31.30
2023-05-15T11:56:44.642Z,31.77
2023-05-15T11:59:16.573Z,32.03
2023-05-15T12:01:48.557Z,32.13
2023-05-15T12:04:20.854Z,31.97
2023-05-15T12:06:52.945Z,29.10
2023-05-15T12:09:27.515Z,29.33
2023-05-15T12:11:59.633Z,28.47
2023-05-15T12:14:32.069Z,29.50
2023-05-15T12:17:04.639Z,32.40
2023-05-15T12:19:38.613Z,32.20
2023-05-15T12:22:10.867Z,34.43
2023-05-15T12:24:42.916Z,39.17
2023-05-15T12:27:16.209Z,38.10
2023-05-15T12:29:48.305Z,37.03
2023-05-15T12:32:21.587Z,41.73
2023-05-15T12:34:54.191Z,42.97
2023-05-15T12:37:26.612Z,42.03
2023-05-15T12:40:12.330Z,43.20
2023-05-15T12:42:45.749Z,45.37
2023-05-15T12:45:20.373Z,43.00
2023-05-15T12:47:52.437Z,42.80
2023-05-15T12:50:26.242Z,42.60
2023-05-15T12:53:01.657Z,42.00
2023-05-15T12:55:36.540Z,43.17
2023-05-15T12:58:11.627Z,43.43
2023-05-15T13:00:46.422Z,42.37
2023-05-15T13:03:22.082Z,43.13
2023-05-15T13:05:54.194Z,41.37
2023-05-15T13:08:26.196Z,41.00
2023-05-15T13:10:59.976Z,40.80
2023-05-15T13:13:50.332Z,39.20
2023-05-15T13:16:26.719Z,41.13
2023-05-15T13:18:59.387Z,40.03
2023-05-15T13:21:31.493Z,38.97
2023-05-15T13:24:03.830Z,40.83
2023-05-15T13:26:35.888Z,40.10
2023-05-15T13:29:07.930Z,39.33
2023-05-15T13:31:40.008Z,42.13
2023-05-15T13:34:11.977Z,40.37
2023-05-15T13:36:43.880Z,39.30
2023-05-15T13:39:15.867Z,40.10
2023-05-15T13:41:47.792Z,37.90
2023-05-15T13:44:19.749Z,38.70
2023-05-15T13:46:51.700Z,34.67
2023-05-15T13:49:23.784Z,36.53
2023-05-15T13:51:55.845Z,35.90
2023-05-15T13:54:27.886Z,37.53
2023-05-15T13:57:01.576Z,37.80
2023-05-15T13:59:33.550Z,35.67
2023-05-15T14:02:05.454Z,32.63
2023-05-15T14:04:37.619Z,31.03
2023-05-15T14:07:09.665Z,29.60
2023-05-15T14:09:41.551Z,27.10
2023-05-15T14:12:13.514Z,26.37
2023-05-15T14:14:47.042Z,24.70
2023-05-15T14:17:19.038Z,23.80
2023-05-15T14:19:51.360Z,21.67
2023-05-15T14:22:25.047Z,20.27
2023-05-15T14:24:57.276Z,20.43
2023-05-15T14:27:29.471Z,18.90
2023-05-15T14:30:02.262Z,17.60
2023-05-15T14:32:34.369Z,16.00
2023-05-15T14:35:06.644Z,12.77
2023-05-15T14:37:38.645Z,10.47
2023-05-15T14:40:11.431Z,9.67
2023-05-15T14:42:43.493Z,9.70
2023-05-15T14:45:15.766Z,7.97
2023-05-15T14:47:47.759Z,8.37
2023-05-15T14:50:19.971Z,8.07
2023-05-15T14:52:51.942Z,7.27
2023-05-15T14:55:23.952Z,7.53
2023-05-15T14:57:57.818Z,7.40
2023-05-15T15:00:29.805Z,6.80
2023-05-15T15:03:02.732Z,6.80
2023-05-15T15:05:34.722Z,7.73
2023-05-15T15:08:10.947Z,8.60
2023-05-15T15:10:43.702Z,7.40
2023-05-15T15:13:16.639Z,6.77
2023-05-15T15:15:48.976Z,9.40
2023-05-15T15:18:21.562Z,9.60
2023-05-15T15:20:53.505Z,11.13
2023-05-15T15:23:25.537Z,6.23
2023-05-15T15:25:57.524Z,8.10
2023-05-15T15:28:33.606Z,9.00
2023-05-15T15:31:05.707Z,8.93
2023-05-15T15:33:37.879Z,8.53
2023-05-15T15:36:09.856Z,7.80
2023-05-15T15:38:43.789Z,7.13
2023-05-15T15:41:15.844Z,9.97
2023-05-15T15:43:47.971Z,10.33
2023-05-15T15:46:19.944Z,9.73
2023-05-15T15:48:52.033Z,8.40
2023-05-15T15:51:24.031Z,8.33
2023-05-15T15:53:56.024Z,8.60
2023-05-15T15:56:28.002Z,7.70
2023-05-15T15:58:59.965Z,7.27
2023-05-15T16:01:32.813Z,8.00
2023-05-15T16:04:04.968Z,8.27
2023-05-15T16:06:36.982Z,7.80
2023-05-15T16:09:09.063Z,6.43
2023-05-15T16:11:41.058Z,8.40
2023-05-15T16:14:12.958Z,7.37
2023-05-15T16:16:45.169Z,5.27
2023-05-15T16:19:17.606Z,5.70
2023-05-15T16:21:49.653Z,6.50
2023-05-15T16:24:21.663Z,6.23
2023-05-15T16:26:53.644Z,5.40
2023-05-15T16:29:25.847Z,6.70
2023-05-15T16:31:58.417Z,4.33
2023-05-15T16:34:30.408Z,3.70
2023-05-15T16:37:02.382Z,5.07
2023-05-15T16:39:40.075Z,5.20
2023-05-15T16:42:12.001Z,4.03
2023-05-15T16:44:43.966Z,6.27
2023-05-15T16:47:16.125Z,5.43
2023-05-15T16:49:49.991Z,3.60
2023-05-15T16:52:22.625Z,5.53
2023-05-15T16:54:54.623Z,4.13
2023-05-15T16:57:27.004Z,5.87
2023-05-15T16:59:58.960Z,5.40
2023-05-15T17:02:31.117Z,5.97
2023-05-15T17:05:04.024Z,5.63
2023-05-15T17:07:37.805Z,3.90
2023-05-15T17:10:11.931Z,4.60
2023-05-15T17:12:44.230Z,5.50
2023-05-15T17:15:16.361Z,6.10
2023-05-15T17:17:48.296Z,4.57
2023-05-15T17:20:20.379Z,4.57
2023-05-15T17:22:52.352Z,5.33
2023-05-15T17:25:24.485Z,6.83
2023-05-15T17:27:56.527Z,5.67
2023-05-15T17:30:28.513Z,5.53
2023-05-15T17:33:00.665Z,5.73
2023-05-15T17:35:33.194Z,8.20
2023-05-15T17:38:05.318Z,10.13
2023-05-15T17:40:37.287Z,9.20
2023-05-15T17:43:10.281Z,5.23
2023-05-15T17:45:42.309Z,5.73
2023-05-15T17:48:14.282Z,6.33
2023-05-15T17:50:46.372Z,4.53
2023-05-15T17:53:18.388Z,9.50
2023-05-15T17:55:50.667Z,5.80
2023-05-15T17:58:22.758Z,5.60
2023-05-15T18:00:54.696Z,7.53
2023-05-15T18:03:26.876Z,8.00
2023-05-15T18:05:58.823Z,8.83
2023-05-15T18:08:30.810Z,8.93
2023-05-15T18:11:11.119Z,5.30
2023-05-15T18:13:49.906Z,6.53
2023-05-15T18:16:22.038Z,7.07
2023-05-15T18:18:54.218Z,6.07
2023-05-15T18:21:26.181Z,4.97
2023-05-15T18:23:58.267Z,6.47
2023-05-15T18:26:31.324Z,4.83
2023-05-15T18:29:03.393Z,5.27
2023-05-15T18:31:36.197Z,6.70
2023-05-15T18:34:08.211Z,7.03
2023-05-15T18:36:40.153Z,5.60
2023-05-15T18:39:12.595Z,6.63
2023-05-15T18:41:44.590Z,7.23
2023-05-15T18:44:16.591Z,7.07
2023-05-15T18:46:48.526Z,5.80
2023-05-15T18:49:20.678Z,7.90
2023-05-15T18:51:52.618Z,8.63
2023-05-15T18:54:25.038Z,14.87
2023-05-15T18:56:57.021Z,10.07
2023-05-15T18:59:29.715Z,7.77
2023-05-15T19:02:01.736Z,11.60
2023-05-15T19:04:33.737Z,9.07
2023-05-15T19:07:06.356Z,8.57
2023-05-15T19:09:38.295Z,9.17
2023-05-15T19:12:10.205Z,8.97
2023-05-15T19:14:42.125Z,9.13
2023-05-15T19:17:14.062Z,10.03
2023-05-15T19:19:47.245Z,8.70
2023-05-15T19:22:19.411Z,8.77
2023-05-15T19:24:51.417Z,6.87
2023-05-15T19:27:23.332Z,8.70
2023-05-15T19:29:55.322Z,8.87
2023-05-15T19:32:27.599Z,8.97
2023-05-15T19:34:59.878Z,11.27
2023-05-15T19:37:31.873Z,11.13
2023-05-15T19:40:04.657Z,10.90
2023-05-15T19:42:36.649Z,10.20
2023-05-15T19:45:09.279Z,9.33
2023-05-15T19:47:42.618Z,12.10
2023-05-15T19:50:14.686Z,8.93
2023-05-15T19:52:46.720Z,8.80
2023-05-15T19:55:18.736Z,9.70
2023-05-15T19:57:55.755Z,10.53
2023-05-15T20:00:27.965Z,14.47
2023-05-15T20:03:01.006Z,11.17
2023-05-15T20:05:33.255Z,9.73
2023-05-15T20:08:05.758Z,10.40
2023-05-15T20:10:37.689Z,9.30
2023-05-15T20:13:09.662Z,8.00
2023-05-15T20:15:42.458Z,8.70
2023-05-15T20:18:15.616Z,9.80
2023-05-15T20:20:47.616Z,11.67
2023-05-15T20:23:22.869Z,8.23
2023-05-15T20:25:55.057Z,5.47
2023-05-15T20:28:29.031Z,6.88
2023-05-15T20:31:01.751Z,7.37
2023-05-15T20:33:33.811Z,4.40
2023-05-15T20:36:06.084Z,4.33
2023-05-15T20:38:38.612Z,3.47
2023-05-15T20:41:11.287Z,3.53
2023-05-15T20:43:43.302Z,2.37
2023-05-15T20:46:15.586Z,2.97
2023-05-15T20:48:47.817Z,4.00
2023-05-15T20:51:19.749Z,2.90
2023-05-15T20:53:51.731Z,3.10
2023-05-15T20:56:23.720Z,3.03
2023-05-15T20:58:57.543Z,7.73
2023-05-15T21:01:31.595Z,5.00
2023-05-15T21:04:03.862Z,6.40
2023-05-15T21:06:36.161Z,3.73
2023-05-15T21:09:08.731Z,5.45
2023-05-15T21:11:40.837Z,3.93
2023-05-15T21:14:13.321Z,5.83
2023-05-15T21:16:45.523Z,4.07
2023-05-15T21:19:17.655Z,5.47
2023-05-15T21:21:49.679Z,4.57
2023-05-15T21:24:21.795Z,5.90
2023-05-15T21:26:53.835Z,3.90
2023-05-15T21:29:25.739Z,7.77
2023-05-15T21:31:57.949Z,5.77
2023-05-15T21:34:29.906Z,3.80
2023-05-15T21:37:01.824Z,6.30
2023-05-15T21:39:33.740Z,7.93
2023-05-15T21:42:05.922Z,7.57
2023-05-15T21:44:37.944Z,5.13
2023-05-15T21:47:09.902Z,4.80
2023-05-15T21:49:41.822Z,4.90
2023-05-15T21:52:13.773Z,5.57
2023-05-15T21:54:45.877Z,4.63
2023-05-15T21:57:17.996Z,5.90
2023-05-15T21:59:50.174Z,5.60
2023-05-15T22:02:22.549Z,4.50
2023-05-15T22:04:54.573Z,5.97
2023-05-15T22:07:26.526Z,6.80
2023-05-15T22:09:58.504Z,4.23
2023-05-15T22:12:32.281Z,6.57
2023-05-15T22:15:04.751Z,5.80
2023-05-15T22:17:37.114Z,5.03
2023-05-15T22:20:13.244Z,7.50
2023-05-15T22:22:45.231Z,5.47
2023-05-15T22:25:17.162Z,7.20
2023-05-15T22:27:49.242Z,5.20
2023-05-15T22:30:21.444Z,5.47
2023-05-15T22:32:53.399Z,6.83
2023-05-15T22:35:25.724Z,5.83
2023-05-15T22:37:57.819Z,6.40
2023-05-15T22:40:29.752Z,7.67
2023-05-15T22:43:02.728Z,5.53
2023-05-15T22:45:34.751Z,6.53
2023-05-15T22:48:07.047Z,6.70
2023-05-15T22:50:39.123Z,6.93
2023-05-15T22:53:11.086Z,8.00
2023-05-15T22:55:43.095Z,6.13
2023-05-15T22:58:14.986Z,6.10
2023-05-15T23:00:47.073Z,6.37
2023-05-15T23:03:19.174Z,7.60
2023-05-15T23:05:53.551Z,6.80
2023-05-15T23:08:25.495Z,8.27
2023-05-15T23:10:57.468Z,7.90
2023-05-15T23:13:29.413Z,11.40
2023-05-15T23:16:01.431Z,10.63
2023-05-15T23:18:33.438Z,10.07
2023-05-15T23:21:05.529Z,8.67
2023-05-15T23:23:37.589Z,7.00
2023-05-15T23:26:09.680Z,9.33
2023-05-15T23:28:41.604Z,13.70
2023-05-15T23:31:14.326Z,9.57
2023-05-15T23:33:46.357Z,13.17
2023-05-15T23:36:18.401Z,11.30
2023-05-15T23:38:50.779Z,12.73
2023-05-15T23:41:22.831Z,7.53
2023-05-15T23:43:54.891Z,12.47
2023-05-15T23:46:26.904Z,13.40
2023-05-15T23:48:58.826Z,16.00
2023-05-15T23:51:31.298Z,10.53
2023-05-15T23:54:03.421Z,10.87
2023-05-15T23:56:35.556Z,13.63
2023-05-15T23:59:07.586Z,13.87
